createdAt,value
2023-01-19T00:01:44.584Z,75.72
2023-01-19T00:04:13.285Z,75.50
2023-01-19T00:06:42.066Z,75.63
2023-01-19T00:09:10.349Z,75.47
2023-01-19T00:11:39.039Z,75.19
2023-01-19T00:14:07.427Z,75.07
2023-01-19T00:16:36.003Z,75.27
2023-01-19T00:19:04.726Z,75.49
2023-01-19T00:21:32.882Z,75.76
2023-01-19T00:24:01.065Z,75.72
2023-01-19T00:26:29.345Z,75.74
2023-01-19T00:28:57.934Z,75.92
2023-01-19T00:31:26.552Z,75.98
2023-01-19T00:33:54.907Z,76.13
2023-01-19T00:36:23.191Z,76.79
2023-01-19T00:38:51.471Z,77.54
2023-01-19T00:41:39.706Z,77.81
2023-01-19T00:44:08.576Z,78.34
2023-01-19T00:46:37.093Z,78.32
2023-01-19T00:49:06.086Z,78.35
2023-01-19T00:51:34.276Z,78.54
2023-01-19T00:54:05.108Z,78.46
2023-01-19T00:56:33.388Z,78.77
2023-01-19T00:59:02.183Z,79.04
2023-01-19T01:01:45.040Z,78.94
2023-01-19T01:04:15.021Z,79.82
2023-01-19T01:06:43.310Z,80.32
2023-01-19T01:09:14.756Z,80.07
2023-01-19T01:11:43.893Z,80.03
2023-01-19T01:14:12.856Z,80.10
2023-01-19T01:16:41.498Z,80.35
2023-01-19T01:19:09.931Z,80.50
2023-01-19T01:21:38.224Z,80.61
2023-01-19T01:24:08.025Z,81.21
2023-01-19T01:26:36.115Z,81.18
2023-01-19T01:29:06.554Z,81.50
2023-01-19T01:31:34.965Z,81.18
2023-01-19T01:34:03.630Z,81.17
2023-01-19T01:36:33.637Z,81.16
2023-01-19T01:39:01.820Z,81.49
2023-01-19T01:41:30.635Z,81.15
2023-01-19T01:44:01.832Z,81.16
2023-01-19T01:46:32.296Z,81.28
2023-01-19T01:49:05.997Z,81.37
2023-01-19T01:51:48.404Z,81.26
2023-01-19T01:54:27.619Z,81.27
2023-01-19T01:57:01.146Z,81.29
2023-01-19T01:59:39.499Z,81.35
2023-01-19T02:02:51.391Z,81.61
2023-01-19T02:05:36.465Z,81.52
2023-01-19T02:08:35.688Z,81.53
2023-01-19T02:11:23.714Z,81.52
2023-01-19T02:13:51.988Z,81.35
2023-01-19T02:16:20.537Z,81.37
2023-01-19T02:18:48.963Z,81.66
2023-01-19T02:21:29.013Z,81.83
2023-01-19T02:24:01.799Z,81.68
2023-01-19T02:26:35.397Z,81.67
2023-01-19T02:29:21.702Z,81.65
2023-01-19T02:31:50.794Z,81.58
2023-01-19T02:34:21.125Z,81.99
2023-01-19T02:36:54.116Z,81.65
2023-01-19T02:39:34.169Z,81.68
2023-01-19T02:42:15.810Z,81.53
2023-01-19T02:44:48.416Z,81.67
2023-01-19T02:47:17.223Z,81.90
2023-01-19T02:49:53.998Z,81.88
2023-01-19T02:52:22.811Z,81.76
2023-01-19T02:55:19.628Z,81.75
2023-01-19T02:58:02.250Z,81.52
2023-01-19T03:00:52.104Z,81.78
2023-01-19T03:03:42.188Z,81.84
2023-01-19T03:06:31.563Z,81.96
2023-01-19T03:09:21.737Z,81.82
2023-01-19T03:12:29.517Z,82.33
2023-01-19T03:15:05.266Z,81.99
2023-01-19T03:17:36.028Z,82.47
2023-01-19T03:20:06.883Z,82.51
2023-01-19T03:22:35.537Z,83.22
2023-01-19T03:25:04.715Z,83.03
2023-01-19T03:27:41.140Z,83.23
2023-01-19T03:30:26.272Z,83.46
2023-01-19T03:33:07.392Z,83.35
2023-01-19T03:35:39.621Z,83.35
2023-01-19T03:38:15.063Z,83.35
2023-01-19T03:40:45.392Z,84.69
2023-01-19T03:43:16.954Z,84.04
2023-01-19T03:45:46.878Z,83.80
2023-01-19T03:48:15.255Z,84.03
2023-01-19T03:50:43.545Z,83.87
2023-01-19T03:53:14.893Z,83.89
2023-01-19T03:55:47.402Z,84.67
2023-01-19T03:58:15.762Z,84.72
2023-01-19T04:00:44.553Z,84.41
2023-01-19T04:03:17.661Z,84.10
2023-01-19T04:05:46.340Z,84.12
2023-01-19T04:08:15.325Z,83.74
2023-01-19T04:10:43.811Z,83.55
2023-01-19T04:13:12.201Z,83.76
2023-01-19T04:15:40.614Z,83.64
2023-01-19T04:18:09.272Z,83.15
2023-01-19T04:20:37.653Z,83.32
2023-01-19T04:23:06.161Z,83.18
2023-01-19T04:25:34.540Z,83.34
2023-01-19T04:28:03.222Z,83.29
2023-01-19T04:30:32.215Z,83.19
2023-01-19T04:33:00.972Z,83.45
2023-01-19T04:35:29.920Z,83.52
2023-01-19T04:37:58.093Z,84.11
2023-01-19T04:40:26.371Z,85.15
2023-01-19T04:42:54.882Z,86.43
2023-01-19T04:45:23.543Z,86.17
2023-01-19T04:47:52.134Z,85.76
2023-01-19T04:50:20.418Z,85.41
2023-01-19T04:52:49.239Z,85.09
2023-01-19T04:55:18.250Z,84.86
2023-01-19T04:57:46.794Z,84.69
2023-01-19T05:00:17.955Z,84.47
2023-01-19T05:02:46.566Z,84.39
2023-01-19T05:05:16.504Z,84.44
2023-01-19T05:07:44.734Z,84.29
2023-01-19T05:10:13.532Z,84.26
2023-01-19T05:12:42.630Z,84.71
2023-01-19T05:15:11.364Z,84.79
2023-01-19T05:17:40.014Z,85.38
2023-01-19T05:20:11.201Z,85.61
2023-01-19T05:22:39.853Z,85.55
2023-01-19T05:25:08.933Z,86.05
2023-01-19T05:27:38.752Z,85.86
2023-01-19T05:30:07.967Z,85.55
2023-01-19T05:32:36.338Z,85.47
2023-01-19T05:35:05.395Z,85.82
2023-01-19T05:37:33.640Z,86.50
2023-01-19T05:40:01.950Z,86.55
2023-01-19T05:42:32.093Z,86.31
2023-01-19T05:45:01.363Z,86.01
2023-01-19T05:47:30.144Z,85.67
2023-01-19T05:49:58.735Z,85.70
2023-01-19T05:52:27.018Z,86.08
2023-01-19T05:54:55.394Z,86.37
2023-01-19T05:57:24.091Z,86.28
2023-01-19T05:59:52.575Z,86.17
2023-01-19T06:02:21.935Z,86.24
2023-01-19T06:04:50.365Z,86.85
2023-01-19T06:07:18.651Z,87.71
2023-01-19T06:09:47.347Z,88.03
2023-01-19T06:12:15.523Z,87.89
2023-01-19T06:14:43.906Z,87.40
2023-01-19T06:17:12.190Z,87.08
2023-01-19T06:19:40.916Z,86.79
2023-01-19T06:22:09.622Z,86.20
2023-01-19T06:24:38.161Z,86.04
2023-01-19T06:27:07.570Z,86.44
2023-01-19T06:29:36.357Z,86.56
2023-01-19T06:32:05.758Z,86.53
2023-01-19T06:34:34.050Z,86.70
2023-01-19T06:37:02.636Z,86.60
2023-01-19T06:39:30.821Z,86.47
2023-01-19T06:41:59.209Z,85.98
2023-01-19T06:44:27.587Z,86.06
2023-01-19T06:47:14.520Z,86.10
2023-01-19T06:49:44.104Z,86.31
2023-01-19T06:52:17.604Z,86.05
2023-01-19T06:54:46.400Z,86.39
2023-01-19T06:57:15.369Z,85.95
2023-01-19T06:59:43.691Z,85.85
2023-01-19T07:02:27.486Z,85.77
2023-01-19T07:04:57.177Z,85.48
2023-01-19T07:07:26.306Z,85.59
2023-01-19T07:09:54.823Z,85.91
2023-01-19T07:12:24.230Z,85.53
2023-01-19T07:14:52.920Z,85.32
2023-01-19T07:17:21.414Z,85.28
2023-01-19T07:19:49.588Z,85.20
2023-01-19T07:22:17.775Z,85.82
2023-01-19T07:24:46.052Z,86.05
2023-01-19T07:27:16.596Z,85.55
2023-01-19T07:29:44.873Z,85.23
2023-01-19T07:32:13.553Z,84.94
2023-01-19T07:34:41.950Z,85.10
2023-01-19T07:37:10.324Z,84.95
2023-01-19T07:39:38.704Z,84.79
2023-01-19T07:42:07.198Z,84.44
2023-01-19T07:44:35.987Z,83.94
2023-01-19T07:47:07.649Z,83.50
2023-01-19T07:49:36.645Z,82.61
2023-01-19T07:52:05.658Z,82.80
2023-01-19T07:54:34.130Z,82.81
2023-01-19T07:57:02.411Z,82.35
2023-01-19T07:59:32.399Z,82.31
2023-01-19T08:02:01.478Z,82.14
2023-01-19T08:04:30.051Z,82.09
2023-01-19T08:06:58.511Z,81.65
2023-01-19T08:09:26.999Z,80.45
2023-01-19T08:11:55.481Z,81.03
2023-01-19T08:14:23.664Z,80.15
2023-01-19T08:16:52.064Z,78.15
2023-01-19T08:19:20.600Z,76.31
2023-01-19T08:21:48.827Z,76.27
2023-01-19T08:24:23.004Z,75.63
2023-01-19T08:26:58.619Z,73.96
2023-01-19T08:29:27.571Z,72.52
2023-01-19T08:31:57.733Z,71.31
2023-01-19T08:34:26.395Z,70.71
2023-01-19T08:36:54.569Z,70.19
2023-01-19T08:39:24.078Z,68.90
2023-01-19T08:41:52.675Z,68.57
2023-01-19T08:44:21.630Z,67.29
2023-01-19T08:46:50.263Z,66.63
2023-01-19T08:49:18.542Z,65.66
2023-01-19T08:51:47.241Z,63.62
2023-01-19T08:54:18.539Z,62.45
2023-01-19T08:56:47.276Z,61.48
2023-01-19T08:59:17.093Z,58.57
2023-01-19T09:01:45.375Z,57.48
2023-01-19T09:04:14.271Z,56.19
2023-01-19T09:06:42.928Z,55.50
2023-01-19T09:09:11.045Z,55.84
2023-01-19T09:11:39.218Z,54.68
2023-01-19T09:14:08.649Z,52.02
2023-01-19T09:16:37.009Z,51.69
2023-01-19T09:19:08.800Z,50.15
2023-01-19T09:21:37.261Z,49.70
2023-01-19T09:24:05.752Z,47.23
2023-01-19T09:26:34.233Z,47.20
2023-01-19T09:29:03.247Z,46.74
2023-01-19T09:31:31.470Z,46.72
2023-01-19T09:34:00.111Z,44.95
2023-01-19T09:36:28.277Z,43.62
2023-01-19T09:38:56.666Z,42.65
2023-01-19T09:41:26.581Z,42.01
2023-01-19T09:43:58.150Z,41.68
2023-01-19T09:46:35.604Z,40.53
2023-01-19T09:49:12.803Z,41.15
2023-01-19T09:51:45.396Z,39.75
2023-01-19T09:54:28.527Z,39.32
2023-01-19T09:56:57.107Z,39.12
2023-01-19T09:59:29.257Z,38.94
2023-01-19T10:02:00.524Z,38.99
2023-01-19T10:04:43.034Z,38.69
2023-01-19T10:08:03.798Z,37.25
2023-01-19T10:10:33.226Z,37.14
2023-01-19T10:13:20.233Z,37.05
2023-01-19T10:16:12.977Z,38.57
2023-01-19T10:18:51.715Z,36.76
2023-01-19T10:21:42.893Z,36.91
2023-01-19T10:24:33.429Z,35.40
2023-01-19T10:27:02.075Z,34.15
2023-01-19T10:29:38.365Z,34.05
2023-01-19T10:32:15.021Z,34.30
2023-01-19T10:34:43.892Z,34.20
2023-01-19T10:37:26.105Z,33.39
2023-01-19T10:39:57.486Z,34.27
2023-01-19T10:42:29.730Z,33.26
2023-01-19T10:44:58.726Z,32.82
2023-01-19T10:47:37.180Z,34.32
2023-01-19T10:50:40.886Z,34.43
2023-01-19T10:53:21.171Z,33.23
2023-01-19T10:56:22.485Z,33.64
2023-01-19T10:58:51.801Z,33.05
2023-01-19T11:01:24.595Z,30.46
2023-01-19T11:03:55.599Z,30.44
2023-01-19T11:06:30.747Z,29.73
2023-01-19T11:09:16.848Z,30.43
2023-01-19T11:11:51.419Z,30.82
2023-01-19T11:14:23.781Z,30.67
2023-01-19T11:16:56.530Z,30.17
2023-01-19T11:19:33.471Z,28.95
2023-01-19T11:22:27.110Z,27.88
2023-01-19T11:25:03.884Z,26.14
2023-01-19T11:27:36.565Z,27.12
2023-01-19T11:30:22.554Z,26.94
2023-01-19T11:32:51.896Z,25.57
2023-01-19T11:35:34.267Z,26.16
2023-01-19T11:38:12.270Z,27.29
2023-01-19T11:40:42.292Z,26.43
2023-01-19T11:43:13.738Z,26.80
2023-01-19T11:45:44.937Z,27.07
2023-01-19T11:48:23.719Z,26.36
2023-01-19T11:50:52.419Z,25.76
2023-01-19T11:53:29.502Z,26.12
2023-01-19T11:56:06.526Z,26.13
2023-01-19T11:58:39.697Z,26.97
2023-01-19T12:01:14.007Z,27.38
2023-01-19T12:03:55.358Z,27.19
2023-01-19T12:06:35.305Z,27.58
2023-01-19T12:09:09.743Z,28.12
2023-01-19T12:11:44.114Z,28.32
2023-01-19T12:14:22.875Z,29.10
2023-01-19T12:16:54.775Z,29.37
2023-01-19T12:19:34.170Z,29.02
2023-01-19T12:22:04.297Z,29.48
2023-01-19T12:24:45.268Z,30.16
2023-01-19T12:27:44.051Z,30.34
2023-01-19T12:30:18.771Z,30.66
2023-01-19T12:32:47.677Z,30.85
2023-01-19T12:35:54.181Z,30.90
2023-01-19T12:38:38.180Z,31.53
2023-01-19T12:41:26.197Z,31.73
2023-01-19T12:44:16.792Z,32.25
2023-01-19T12:47:03.394Z,32.52
2023-01-19T12:49:51.620Z,33.04
2023-01-19T12:52:22.057Z,32.88
2023-01-19T12:54:58.928Z,33.48
2023-01-19T12:57:33.150Z,33.33
2023-01-19T13:00:28.191Z,33.76
2023-01-19T13:03:25.593Z,34.11
2023-01-19T13:05:56.089Z,34.43
2023-01-19T13:08:53.160Z,34.78
2023-01-19T13:11:26.317Z,35.30
2023-01-19T13:13:58.120Z,35.34
2023-01-19T13:16:27.713Z,35.06
2023-01-19T13:19:00.730Z,35.46
2023-01-19T13:21:44.671Z,35.61
2023-01-19T13:24:24.302Z,35.85
2023-01-19T13:26:59.135Z,36.26
2023-01-19T13:29:37.541Z,36.35
2023-01-19T13:32:19.450Z,36.72
2023-01-19T13:34:54.891Z,37.16
2023-01-19T13:37:32.061Z,37.11
2023-01-19T13:40:01.245Z,37.46
2023-01-19T13:42:35.782Z,37.84
2023-01-19T13:45:30.889Z,37.98
2023-01-19T13:48:02.875Z,38.19
2023-01-19T13:50:36.046Z,38.79
2023-01-19T13:53:19.188Z,38.87
2023-01-19T13:55:50.340Z,39.02
2023-01-19T13:58:24.294Z,39.17
2023-01-19T14:00:53.135Z,39.29
2023-01-19T14:03:24.191Z,39.35
2023-01-19T14:05:54.561Z,39.81
2023-01-19T14:08:25.570Z,40.00
2023-01-19T14:10:53.877Z,40.03
2023-01-19T14:13:29.799Z,40.26
2023-01-19T14:16:01.173Z,40.43
2023-01-19T14:18:31.777Z,40.83
2023-01-19T14:21:03.458Z,41.23
2023-01-19T14:23:57.648Z,41.69
2023-01-19T14:26:38.565Z,42.53
2023-01-19T14:29:24.041Z,43.49
2023-01-19T14:32:12.794Z,44.24
2023-01-19T14:34:48.847Z,45.41
2023-01-19T14:37:23.778Z,45.79
2023-01-19T14:39:55.543Z,45.89
2023-01-19T14:42:34.878Z,46.48
2023-01-19T14:45:08.221Z,47.29
2023-01-19T14:47:43.267Z,47.55
2023-01-19T14:50:17.837Z,47.74
2023-01-19T14:52:54.819Z,48.43
2023-01-19T14:55:52.062Z,49.10
2023-01-19T14:58:23.194Z,49.05
2023-01-19T15:00:58.156Z,48.72
2023-01-19T15:03:43.619Z,49.11
2023-01-19T15:06:18.973Z,49.14
2023-01-19T15:08:49.021Z,49.91
2023-01-19T15:11:35.990Z,50.39
2023-01-19T15:14:04.474Z,50.69
2023-01-19T15:16:34.782Z,50.78
2023-01-19T15:19:03.183Z,51.90
2023-01-19T15:21:31.780Z,53.33
2023-01-19T15:24:00.566Z,54.15
2023-01-19T15:26:29.161Z,56.10
2023-01-19T15:28:57.439Z,56.54
2023-01-19T15:31:27.020Z,57.31
2023-01-19T15:33:55.911Z,57.69
2023-01-19T15:36:24.584Z,57.71
2023-01-19T15:38:52.816Z,57.27
2023-01-19T15:41:30.020Z,56.95
2023-01-19T15:43:59.106Z,57.55
2023-01-19T15:46:28.181Z,58.19
2023-01-19T15:48:56.386Z,57.73
2023-01-19T15:51:26.881Z,58.19
2023-01-19T15:53:55.511Z,58.18
2023-01-19T15:56:26.570Z,58.82
2023-01-19T15:58:55.349Z,57.92
2023-01-19T16:01:34.051Z,57.65
2023-01-19T16:04:05.644Z,57.81
2023-01-19T16:06:34.440Z,57.84
2023-01-19T16:09:04.040Z,57.60
2023-01-19T16:11:34.387Z,57.63
2023-01-19T16:14:02.944Z,57.64
2023-01-19T16:16:31.391Z,57.89
2023-01-19T16:18:59.817Z,57.86
2023-01-19T16:21:28.607Z,58.02
2023-01-19T16:23:57.101Z,57.83
2023-01-19T16:26:34.651Z,58.09
2023-01-19T16:29:10.577Z,58.18
2023-01-19T16:31:40.969Z,58.59
2023-01-19T16:34:10.394Z,59.16
2023-01-19T16:36:41.395Z,59.68
2023-01-19T16:39:13.811Z,59.59
2023-01-19T16:41:43.879Z,59.60
2023-01-19T16:44:14.771Z,59.93
2023-01-19T16:46:45.715Z,60.24
2023-01-19T16:49:17.075Z,60.19
2023-01-19T16:51:46.057Z,60.28
2023-01-19T16:54:15.961Z,60.35
2023-01-19T16:56:44.776Z,60.34
2023-01-19T16:59:16.390Z,60.54
2023-01-19T17:01:45.817Z,60.47
2023-01-19T17:04:14.848Z,61.08
2023-01-19T17:06:43.528Z,61.01
2023-01-19T17:09:12.387Z,61.28
2023-01-19T17:11:41.321Z,61.53
2023-01-19T17:14:16.643Z,61.63
2023-01-19T17:16:44.939Z,61.85
2023-01-19T17:19:16.916Z,61.95
2023-01-19T17:21:48.810Z,61.75
2023-01-19T17:24:17.637Z,62.34
2023-01-19T17:26:48.928Z,62.07
2023-01-19T17:29:17.814Z,61.95
2023-01-19T17:31:46.986Z,62.61
2023-01-19T17:34:15.301Z,62.47
2023-01-19T17:36:44.201Z,62.43
2023-01-19T17:39:15.117Z,62.38
2023-01-19T17:41:43.318Z,62.38
2023-01-19T17:44:12.014Z,62.36
2023-01-19T17:46:40.297Z,62.43
2023-01-19T17:49:08.890Z,62.64
2023-01-19T17:51:37.265Z,62.67
2023-01-19T17:54:05.963Z,62.68
2023-01-19T17:56:37.715Z,62.75
2023-01-19T17:59:08.287Z,62.94
2023-01-19T18:01:40.137Z,62.92
2023-01-19T18:04:10.012Z,63.18
2023-01-19T18:06:38.733Z,63.34
2023-01-19T18:09:07.922Z,63.54
2023-01-19T18:11:36.211Z,63.61
2023-01-19T18:14:05.547Z,63.85
2023-01-19T18:16:34.111Z,64.01
2023-01-19T18:19:02.390Z,64.01
2023-01-19T18:21:30.975Z,64.34
2023-01-19T18:24:04.506Z,64.55
2023-01-19T18:26:34.798Z,64.81
2023-01-19T18:29:03.498Z,64.91
2023-01-19T18:31:32.077Z,65.10
2023-01-19T18:34:01.115Z,65.20
2023-01-19T18:36:32.145Z,65.50
2023-01-19T18:39:01.693Z,65.90
2023-01-19T18:41:30.275Z,66.01
2023-01-19T18:43:59.229Z,66.10
2023-01-19T18:46:27.820Z,66.19
2023-01-19T18:48:56.205Z,66.25
2023-01-19T18:51:24.814Z,66.30
2023-01-19T18:53:53.172Z,66.26
2023-01-19T18:56:21.580Z,66.09
2023-01-19T18:58:49.949Z,65.88
2023-01-19T19:01:18.807Z,66.29
2023-01-19T19:03:47.331Z,66.24
2023-01-19T19:06:17.139Z,66.29
2023-01-19T19:08:45.834Z,66.42
2023-01-19T19:11:14.358Z,66.45
2023-01-19T19:13:42.711Z,66.46
2023-01-19T19:16:13.095Z,66.50
2023-01-19T19:18:41.419Z,66.33
2023-01-19T19:21:12.260Z,66.73
2023-01-19T19:23:40.443Z,66.75
2023-01-19T19:26:11.284Z,67.46
2023-01-19T19:28:40.734Z,67.83
2023-01-19T19:31:12.062Z,68.33
2023-01-19T19:33:41.142Z,68.25
2023-01-19T19:36:10.584Z,68.15
2023-01-19T19:38:41.290Z,68.22
2023-01-19T19:41:12.749Z,68.05
2023-01-19T19:43:41.269Z,68.22
2023-01-19T19:46:13.035Z,68.34
2023-01-19T19:48:41.881Z,68.29
2023-01-19T19:51:19.090Z,68.33
2023-01-19T19:53:51.230Z,68.34
2023-01-19T19:56:22.280Z,68.34
2023-01-19T19:58:52.461Z,68.37
2023-01-19T20:01:29.064Z,68.44
2023-01-19T20:04:00.232Z,68.51
2023-01-19T20:06:28.822Z,68.58
2023-01-19T20:08:57.205Z,68.57
2023-01-19T20:11:28.354Z,68.72
2023-01-19T20:13:56.530Z,68.74
2023-01-19T20:16:25.075Z,68.84
2023-01-19T20:18:54.400Z,68.64
2023-01-19T20:21:28.737Z,68.67
2023-01-19T20:24:01.061Z,68.50
2023-01-19T20:26:32.479Z,68.48
2023-01-19T20:29:03.154Z,68.24
2023-01-19T20:31:34.487Z,68.07
2023-01-19T20:34:05.917Z,69.08
2023-01-19T20:36:35.457Z,71.45
2023-01-19T20:39:10.480Z,73.46
2023-01-19T20:41:43.816Z,73.23
2023-01-19T20:44:15.624Z,73.01
2023-01-19T20:46:44.212Z,72.84
2023-01-19T20:49:12.587Z,72.11
2023-01-19T20:51:46.313Z,71.40
2023-01-19T20:54:16.729Z,70.83
2023-01-19T20:56:45.231Z,70.22
2023-01-19T20:59:14.182Z,68.53
2023-01-19T21:01:43.280Z,67.27
2023-01-19T21:04:12.988Z,66.19
2023-01-19T21:06:42.193Z,64.45
2023-01-19T21:09:11.162Z,65.15
2023-01-19T21:11:40.127Z,65.02
2023-01-19T21:14:08.303Z,65.24
2023-01-19T21:16:37.586Z,65.38
2023-01-19T21:19:06.000Z,64.89
2023-01-19T21:21:34.273Z,64.75
2023-01-19T21:24:04.302Z,63.62
2023-01-19T21:26:33.785Z,62.90
2023-01-19T21:29:02.868Z,62.33
2023-01-19T21:31:31.672Z,62.24
2023-01-19T21:34:00.002Z,62.35
2023-01-19T21:36:28.467Z,62.62
2023-01-19T21:39:00.918Z,62.67
2023-01-19T21:41:30.658Z,62.97
2023-01-19T21:44:00.973Z,63.20
2023-01-19T21:46:30.620Z,63.25
2023-01-19T21:49:01.581Z,63.57
2023-01-19T21:51:33.644Z,63.80
2023-01-19T21:54:03.473Z,64.07
2023-01-19T21:56:32.304Z,64.18
2023-01-19T21:59:03.166Z,64.38
2023-01-19T22:01:33.231Z,64.50
2023-01-19T22:04:01.586Z,64.70
2023-01-19T22:06:30.057Z,64.99
2023-01-19T22:08:58.644Z,65.17
2023-01-19T22:11:27.345Z,65.32
2023-01-19T22:13:55.825Z,65.81
2023-01-19T22:16:24.208Z,66.20
2023-01-19T22:18:56.371Z,66.31
2023-01-19T22:21:26.815Z,66.65
2023-01-19T22:23:59.080Z,66.77
2023-01-19T22:26:30.040Z,67.11
2023-01-19T22:29:00.173Z,67.27
2023-01-19T22:31:29.600Z,67.51
2023-01-19T22:33:58.510Z,67.73
2023-01-19T22:36:34.107Z,67.87
2023-01-19T22:39:07.311Z,68.07
2023-01-19T22:41:44.958Z,68.04
2023-01-19T22:44:16.461Z,67.98
2023-01-19T22:46:45.157Z,67.85
2023-01-19T22:49:16.706Z,67.90
2023-01-19T22:51:46.153Z,67.80
2023-01-19T22:54:14.388Z,67.59
2023-01-19T22:56:42.985Z,67.40
2023-01-19T22:59:11.883Z,67.36
2023-01-19T23:01:43.234Z,67.58
2023-01-19T23:04:14.762Z,67.77
2023-01-19T23:06:43.470Z,67.88
2023-01-19T23:09:14.338Z,67.60
2023-01-19T23:11:45.164Z,67.42
2023-01-19T23:14:16.307Z,67.45
2023-01-19T23:16:47.255Z,67.39
2023-01-19T23:19:17.411Z,67.58
2023-01-19T23:21:45.965Z,67.67
2023-01-19T23:24:14.130Z,67.72
2023-01-19T23:26:42.519Z,67.72
2023-01-19T23:29:13.786Z,67.79
2023-01-19T23:31:50.646Z,67.96
2023-01-19T23:34:19.553Z,68.01
2023-01-19T23:36:48.068Z,67.98
2023-01-19T23:39:22.271Z,68.05
2023-01-19T23:41:50.838Z,68.34
2023-01-19T23:44:19.873Z,68.49
2023-01-19T23:46:48.219Z,68.69
2023-01-19T23:49:17.223Z,68.94
2023-01-19T23:51:45.702Z,69.59
2023-01-19T23:54:13.880Z,69.97
2023-01-19T23:56:43.000Z,70.34
2023-01-19T23:59:16.505Z,70.59
